sensor_id;sensor_type;location;lat;lon;timestamp;temperature;humidity
71942;DHT22;59997;53.300;-6.260;2023-05-07T00:00:18;12.34;86.95
71942;DHT22;59997;53.300;-6.260;2023-05-07T00:02:45;12.30;86.99
71942;DHT22;59997;53.300;-6.260;2023-05-07T00:05:11;12.49;86.91
71942;DHT22;59997;53.300;-6.260;2023-05-07T00:07:36;12.47;86.69
71942;DHT22;59997;53.300;-6.260;2023-05-07T00:10:03;12.56;86.46
71942;DHT22;59997;53.300;-6.260;2023-05-07T00:12:28;12.67;86.48
71942;DHT22;59997;53.300;-6.260;2023-05-07T00:14:57;12.71;86.31
71942;DHT22;59997;53.300;-6.260;2023-05-07T00:17:22;12.69;86.35
71942;DHT22;59997;53.300;-6.260;2023-05-07T00:19:48;12.71;86.20
71942;DHT22;59997;53.300;-6.260;2023-05-07T00:22:14;12.82;85.89
71942;DHT22;59997;53.300;-6.260;2023-05-07T00:24:39;12.81;85.75
71942;DHT22;59997;53.300;-6.260;2023-05-07T00:27:05;12.81;85.67
71942;DHT22;59997;53.300;-6.260;2023-05-07T00:29:30;12.74;85.83
71942;DHT22;59997;53.300;-6.260;2023-05-07T00:31:56;12.61;86.09
71942;DHT22;59997;53.300;-6.260;2023-05-07T00:34:21;12.67;85.99
71942;DHT22;59997;53.300;-6.260;2023-05-07T00:36:47;12.64;86.13
71942;DHT22;59997;53.300;-6.260;2023-05-07T00:39:13;12.73;86.12
71942;DHT22;59997;53.300;-6.260;2023-05-07T00:41:38;12.75;86.09
71942;DHT22;59997;53.300;-6.260;2023-05-07T00:44:04;12.75;86.05
71942;DHT22;59997;53.300;-6.260;2023-05-07T00:46:30;12.80;85.98
71942;DHT22;59997;53.300;-6.260;2023-05-07T00:48:56;12.88;85.74
71942;DHT22;59997;53.300;-6.260;2023-05-07T00:51:23;12.87;85.62
71942;DHT22;59997;53.300;-6.260;2023-05-07T00:53:50;12.81;85.69
71942;DHT22;59997;53.300;-6.260;2023-05-07T00:56:16;12.82;85.59
71942;DHT22;59997;53.300;-6.260;2023-05-07T00:58:42;12.89;85.41
71942;DHT22;59997;53.300;-6.260;2023-05-07T01:01:08;12.87;85.38
71942;DHT22;59997;53.300;-6.260;2023-05-07T01:03:33;12.82;85.15
71942;DHT22;59997;53.300;-6.260;2023-05-07T01:06:00;12.88;85.05
71942;DHT22;59997;53.300;-6.260;2023-05-07T01:08:26;12.85;84.93
71942;DHT22;59997;53.300;-6.260;2023-05-07T01:10:56;12.87;84.80
71942;DHT22;59997;53.300;-6.260;2023-05-07T01:13:22;12.85;84.73
71942;DHT22;59997;53.300;-6.260;2023-05-07T01:15:48;12.81;84.70
71942;DHT22;59997;53.300;-6.260;2023-05-07T01:18:14;12.74;84.69
71942;DHT22;59997;53.300;-6.260;2023-05-07T01:20:41;12.73;84.66
71942;DHT22;59997;53.300;-6.260;2023-05-07T01:23:07;12.69;84.53
71942;DHT22;59997;53.300;-6.260;2023-05-07T01:25:34;12.67;84.42
71942;DHT22;59997;53.300;-6.260;2023-05-07T01:27:59;12.68;84.33
71942;DHT22;59997;53.300;-6.260;2023-05-07T01:30:27;12.69;83.93
71942;DHT22;59997;53.300;-6.260;2023-05-07T01:33:08;12.68;83.91
71942;DHT22;59997;53.300;-6.260;2023-05-07T01:35:38;12.73;83.82
71942;DHT22;59997;53.300;-6.260;2023-05-07T01:38:05;12.73;83.57
71942;DHT22;59997;53.300;-6.260;2023-05-07T01:40:32;12.68;83.49
71942;DHT22;59997;53.300;-6.260;2023-05-07T01:42:59;12.71;83.45
71942;DHT22;59997;53.300;-6.260;2023-05-07T01:45:25;12.65;83.51
71942;DHT22;59997;53.300;-6.260;2023-05-07T01:47:52;12.60;83.66
71942;DHT22;59997;53.300;-6.260;2023-05-07T01:50:19;12.56;83.53
71942;DHT22;59997;53.300;-6.260;2023-05-07T01:52:46;12.56;83.74
71942;DHT22;59997;53.300;-6.260;2023-05-07T01:55:12;12.53;83.71
71942;DHT22;59997;53.300;-6.260;2023-05-07T01:57:37;12.41;83.85
71942;DHT22;59997;53.300;-6.260;2023-05-07T02:00:03;12.36;83.85
71942;DHT22;59997;53.300;-6.260;2023-05-07T02:02:30;12.29;84.00
71942;DHT22;59997;53.300;-6.260;2023-05-07T02:04:56;12.29;84.01
71942;DHT22;59997;53.300;-6.260;2023-05-07T02:07:22;12.28;83.93
71942;DHT22;59997;53.300;-6.260;2023-05-07T02:09:47;12.28;84.17
71942;DHT22;59997;53.300;-6.260;2023-05-07T02:12:13;12.22;84.05
71942;DHT22;59997;53.300;-6.260;2023-05-07T02:14:38;12.22;84.03
71942;DHT22;59997;53.300;-6.260;2023-05-07T02:17:04;12.21;84.08
71942;DHT22;59997;53.300;-6.260;2023-05-07T02:19:29;12.21;84.09
71942;DHT22;59997;53.300;-6.260;2023-05-07T02:21:55;12.15;84.04
71942;DHT22;59997;53.300;-6.260;2023-05-07T02:24:20;12.15;83.99
71942;DHT22;59997;53.300;-6.260;2023-05-07T02:26:46;12.15;83.94
71942;DHT22;59997;53.300;-6.260;2023-05-07T02:29:12;12.21;83.82
71942;DHT22;59997;53.300;-6.260;2023-05-07T02:31:37;12.21;83.65
71942;DHT22;59997;53.300;-6.260;2023-05-07T02:34:02;12.21;83.52
71942;DHT22;59997;53.300;-6.260;2023-05-07T02:36:29;12.15;83.61
71942;DHT22;59997;53.300;-6.260;2023-05-07T02:38:54;12.13;83.75
71942;DHT22;59997;53.300;-6.260;2023-05-07T02:41:20;12.09;83.77
71942;DHT22;59997;53.300;-6.260;2023-05-07T02:43:45;12.06;83.65
71942;DHT22;59997;53.300;-6.260;2023-05-07T02:46:11;11.98;83.65
71942;DHT22;59997;53.300;-6.260;2023-05-07T02:48:37;11.77;83.69
71942;DHT22;59997;53.300;-6.260;2023-05-07T02:51:03;11.53;83.87
71942;DHT22;59997;53.300;-6.260;2023-05-07T02:53:28;11.30;84.42
71942;DHT22;59997;53.300;-6.260;2023-05-07T02:55:58;11.08;84.58
71942;DHT22;59997;53.300;-6.260;2023-05-07T02:58:24;10.84;84.79
71942;DHT22;59997;53.300;-6.260;2023-05-07T03:00:50;10.64;85.13
71942;DHT22;59997;53.300;-6.260;2023-05-07T03:03:16;10.43;85.42
71942;DHT22;59997;53.300;-6.260;2023-05-07T03:05:42;10.29;85.73
71942;DHT22;59997;53.300;-6.260;2023-05-07T03:08:08;10.28;86.16
71942;DHT22;59997;53.300;-6.260;2023-05-07T03:10:35;10.29;86.32
71942;DHT22;59997;53.300;-6.260;2023-05-07T03:13:01;10.42;86.31
71942;DHT22;59997;53.300;-6.260;2023-05-07T03:15:26;10.53;86.41
71942;DHT22;59997;53.300;-6.260;2023-05-07T03:17:52;10.74;86.30
71942;DHT22;59997;53.300;-6.260;2023-05-07T03:20:17;10.74;86.19
71942;DHT22;59997;53.300;-6.260;2023-05-07T03:22:42;10.76;86.18
71942;DHT22;59997;53.300;-6.260;2023-05-07T03:25:08;10.84;85.82
71942;DHT22;59997;53.300;-6.260;2023-05-07T03:27:34;10.88;85.71
71942;DHT22;59997;53.300;-6.260;2023-05-07T03:30:00;10.90;85.69
71942;DHT22;59997;53.300;-6.260;2023-05-07T03:32:26;10.88;85.76
71942;DHT22;59997;53.300;-6.260;2023-05-07T03:34:51;10.84;86.01
71942;DHT22;59997;53.300;-6.260;2023-05-07T03:37:18;10.76;86.30
71942;DHT22;59997;53.300;-6.260;2023-05-07T03:39:43;10.61;86.17
71942;DHT22;59997;53.300;-6.260;2023-05-07T03:42:09;10.53;86.16
71942;DHT22;59997;53.300;-6.260;2023-05-07T03:44:34;10.50;86.15
71942;DHT22;59997;53.300;-6.260;2023-05-07T03:47:01;10.45;86.23
71942;DHT22;59997;53.300;-6.260;2023-05-07T03:49:27;10.48;86.29
71942;DHT22;59997;53.300;-6.260;2023-05-07T03:51:52;10.52;86.41
71942;DHT22;59997;53.300;-6.260;2023-05-07T03:54:18;10.55;86.32
71942;DHT22;59997;53.300;-6.260;2023-05-07T03:56:43;10.61;86.27
71942;DHT22;59997;53.300;-6.260;2023-05-07T03:59:09;10.63;86.21
71942;DHT22;59997;53.300;-6.260;2023-05-07T04:01:34;10.61;86.24
71942;DHT22;59997;53.300;-6.260;2023-05-07T04:04:00;10.57;86.38
71942;DHT22;59997;53.300;-6.260;2023-05-07T04:06:25;10.55;86.65
71942;DHT22;59997;53.300;-6.260;2023-05-07T04:08:51;10.49;86.64
71942;DHT22;59997;53.300;-6.260;2023-05-07T04:11:16;10.52;86.69
71942;DHT22;59997;53.300;-6.260;2023-05-07T04:13:42;10.50;86.81
71942;DHT22;59997;53.300;-6.260;2023-05-07T04:16:07;10.55;86.96
71942;DHT22;59997;53.300;-6.260;2023-05-07T04:18:33;10.60;87.30
71942;DHT22;59997;53.300;-6.260;2023-05-07T04:20:58;10.70;86.71
71942;DHT22;59997;53.300;-6.260;2023-05-07T04:23:24;10.76;85.78
71942;DHT22;59997;53.300;-6.260;2023-05-07T04:25:50;10.81;85.33
71942;DHT22;59997;53.300;-6.260;2023-05-07T04:28:15;10.88;85.54
71942;DHT22;59997;53.300;-6.260;2023-05-07T04:30:41;10.95;85.38
71942;DHT22;59997;53.300;-6.260;2023-05-07T04:33:07;10.98;85.08
71942;DHT22;59997;53.300;-6.260;2023-05-07T04:35:32;10.97;85.00
71942;DHT22;59997;53.300;-6.260;2023-05-07T04:37:58;11.01;84.83
71942;DHT22;59997;53.300;-6.260;2023-05-07T04:40:24;11.04;84.70
71942;DHT22;59997;53.300;-6.260;2023-05-07T04:42:49;11.00;84.70
71942;DHT22;59997;53.300;-6.260;2023-05-07T04:45:15;11.01;84.66
71942;DHT22;59997;53.300;-6.260;2023-05-07T04:47:40;11.02;84.59
71942;DHT22;59997;53.300;-6.260;2023-05-07T04:50:07;11.01;84.43
71942;DHT22;59997;53.300;-6.260;2023-05-07T04:52:33;11.07;84.33
71942;DHT22;59997;53.300;-6.260;2023-05-07T04:54:59;11.08;84.15
71942;DHT22;59997;53.300;-6.260;2023-05-07T04:57:25;11.10;84.08
71942;DHT22;59997;53.300;-6.260;2023-05-07T04:59:52;11.11;84.10
71942;DHT22;59997;53.300;-6.260;2023-05-07T05:02:17;11.07;84.38
71942;DHT22;59997;53.300;-6.260;2023-05-07T05:04:43;11.05;84.32
71942;DHT22;59997;53.300;-6.260;2023-05-07T05:07:08;11.01;84.51
71942;DHT22;59997;53.300;-6.260;2023-05-07T05:09:34;10.98;84.47
71942;DHT22;59997;53.300;-6.260;2023-05-07T05:11:59;10.97;84.64
71942;DHT22;59997;53.300;-6.260;2023-05-07T05:14:25;10.87;84.79
71942;DHT22;59997;53.300;-6.260;2023-05-07T05:16:50;10.87;85.03
71942;DHT22;59997;53.300;-6.260;2023-05-07T05:19:16;10.90;84.99
71942;DHT22;59997;53.300;-6.260;2023-05-07T05:21:42;10.88;84.95
71942;DHT22;59997;53.300;-6.260;2023-05-07T05:24:08;10.90;84.95
71942;DHT22;59997;53.300;-6.260;2023-05-07T05:26:34;10.85;85.28
71942;DHT22;59997;53.300;-6.260;2023-05-07T05:28:59;10.76;85.66
71942;DHT22;59997;53.300;-6.260;2023-05-07T05:31:25;10.67;85.60
71942;DHT22;59997;53.300;-6.260;2023-05-07T05:33:51;10.63;85.51
71942;DHT22;59997;53.300;-6.260;2023-05-07T05:36:17;10.59;85.51
71942;DHT22;59997;53.300;-6.260;2023-05-07T05:38:43;10.59;85.59
71942;DHT22;59997;53.300;-6.260;2023-05-07T05:41:09;10.63;85.83
71942;DHT22;59997;53.300;-6.260;2023-05-07T05:43:35;10.61;85.83
71942;DHT22;59997;53.300;-6.260;2023-05-07T05:46:00;10.55;85.94
71942;DHT22;59997;53.300;-6.260;2023-05-07T05:48:26;10.45;85.98
71942;DHT22;59997;53.300;-6.260;2023-05-07T05:50:51;10.34;85.93
71942;DHT22;59997;53.300;-6.260;2023-05-07T05:53:17;10.25;85.87
71942;DHT22;59997;53.300;-6.260;2023-05-07T05:55:42;10.29;85.95
71942;DHT22;59997;53.300;-6.260;2023-05-07T05:58:09;10.50;85.93
71942;DHT22;59997;53.300;-6.260;2023-05-07T06:00:34;10.78;85.90
71942;DHT22;59997;53.300;-6.260;2023-05-07T06:03:00;11.11;85.93
71942;DHT22;59997;53.300;-6.260;2023-05-07T06:05:25;11.33;85.92
71942;DHT22;59997;53.300;-6.260;2023-05-07T06:07:51;11.84;85.49
71942;DHT22;59997;53.300;-6.260;2023-05-07T06:10:17;12.02;85.50
71942;DHT22;59997;53.300;-6.260;2023-05-07T06:12:42;12.16;85.14
71942;DHT22;59997;53.300;-6.260;2023-05-07T06:15:08;12.32;84.77
71942;DHT22;59997;53.300;-6.260;2023-05-07T06:17:34;12.53;84.29
71942;DHT22;59997;53.300;-6.260;2023-05-07T06:19:59;12.75;84.12
71942;DHT22;59997;53.300;-6.260;2023-05-07T06:22:25;13.24;83.82
71942;DHT22;59997;53.300;-6.260;2023-05-07T06:24:51;13.55;83.34
71942;DHT22;59997;53.300;-6.260;2023-05-07T06:27:16;14.21;81.88
71942;DHT22;59997;53.300;-6.260;2023-05-07T06:29:42;15.37;78.72
71942;DHT22;59997;53.300;-6.260;2023-05-07T06:32:11;16.08;75.34
71942;DHT22;59997;53.300;-6.260;2023-05-07T06:34:37;16.48;72.06
71942;DHT22;59997;53.300;-6.260;2023-05-07T06:37:03;16.21;71.44
71942;DHT22;59997;53.300;-6.260;2023-05-07T06:39:29;16.06;71.83
71942;DHT22;59997;53.300;-6.260;2023-05-07T06:41:55;15.94;73.04
71942;DHT22;59997;53.300;-6.260;2023-05-07T06:44:20;15.61;73.90
71942;DHT22;59997;53.300;-6.260;2023-05-07T06:46:46;15.30;74.45
71942;DHT22;59997;53.300;-6.260;2023-05-07T06:49:15;15.32;74.62
71942;DHT22;59997;53.300;-6.260;2023-05-07T06:51:41;15.49;74.44
71942;DHT22;59997;53.300;-6.260;2023-05-07T06:54:06;15.59;73.39
71942;DHT22;59997;53.300;-6.260;2023-05-07T06:56:32;15.72;73.96
71942;DHT22;59997;53.300;-6.260;2023-05-07T06:59:00;16.10;73.57
71942;DHT22;59997;53.300;-6.260;2023-05-07T07:01:25;17.36;70.16
71942;DHT22;59997;53.300;-6.260;2023-05-07T07:03:51;17.87;68.55
71942;DHT22;59997;53.300;-6.260;2023-05-07T07:06:17;17.79;67.94
71942;DHT22;59997;53.300;-6.260;2023-05-07T07:08:42;17.52;70.78
71942;DHT22;59997;53.300;-6.260;2023-05-07T07:11:09;17.20;68.91
71942;DHT22;59997;53.300;-6.260;2023-05-07T07:13:35;17.35;67.32
71942;DHT22;59997;53.300;-6.260;2023-05-07T07:16:00;17.32;69.55
71942;DHT22;59997;53.300;-6.260;2023-05-07T07:18:26;17.38;70.71
71942;DHT22;59997;53.300;-6.260;2023-05-07T07:20:52;17.32;69.02
71942;DHT22;59997;53.300;-6.260;2023-05-07T07:23:17;17.29;68.94
71942;DHT22;59997;53.300;-6.260;2023-05-07T07:25:43;17.29;69.92
71942;DHT22;59997;53.300;-6.260;2023-05-07T07:28:09;17.14;70.59
71942;DHT22;59997;53.300;-6.260;2023-05-07T07:30:36;17.15;67.36
71942;DHT22;59997;53.300;-6.260;2023-05-07T07:33:01;17.47;68.55
71942;DHT22;59997;53.300;-6.260;2023-05-07T07:35:31;17.84;68.89
71942;DHT22;59997;53.300;-6.260;2023-05-07T07:37:57;18.02;65.90
71942;DHT22;59997;53.300;-6.260;2023-05-07T07:40:23;17.80;65.72
71942;DHT22;59997;53.300;-6.260;2023-05-07T07:42:50;17.38;66.10
71942;DHT22;59997;53.300;-6.260;2023-05-07T07:45:15;17.24;68.15
71942;DHT22;59997;53.300;-6.260;2023-05-07T07:47:41;17.17;70.00
71942;DHT22;59997;53.300;-6.260;2023-05-07T07:50:07;17.08;67.78
71942;DHT22;59997;53.300;-6.260;2023-05-07T07:52:33;17.12;70.14
71942;DHT22;59997;53.300;-6.260;2023-05-07T07:54:58;17.46;68.63
71942;DHT22;59997;53.300;-6.260;2023-05-07T07:57:24;17.94;65.88
71942;DHT22;59997;53.300;-6.260;2023-05-07T07:59:50;18.28;65.79
71942;DHT22;59997;53.300;-6.260;2023-05-07T08:02:16;18.52;66.02
71942;DHT22;59997;53.300;-6.260;2023-05-07T08:04:42;18.77;64.82
71942;DHT22;59997;53.300;-6.260;2023-05-07T08:07:12;18.71;64.65
71942;DHT22;59997;53.300;-6.260;2023-05-07T08:09:40;18.94;65.34
71942;DHT22;59997;53.300;-6.260;2023-05-07T08:12:06;18.92;63.22
71942;DHT22;59997;53.300;-6.260;2023-05-07T08:14:32;18.91;62.97
71942;DHT22;59997;53.300;-6.260;2023-05-07T08:16:58;18.80;65.36
71942;DHT22;59997;53.300;-6.260;2023-05-07T08:19:23;18.49;65.64
71942;DHT22;59997;53.300;-6.260;2023-05-07T08:21:49;18.45;64.60
71942;DHT22;59997;53.300;-6.260;2023-05-07T08:24:14;18.39;66.36
71942;DHT22;59997;53.300;-6.260;2023-05-07T08:26:40;18.40;67.73
71942;DHT22;59997;53.300;-6.260;2023-05-07T08:29:06;18.31;67.98
71942;DHT22;59997;53.300;-6.260;2023-05-07T08:31:32;18.42;69.42
71942;DHT22;59997;53.300;-6.260;2023-05-07T08:33:58;18.59;69.01
71942;DHT22;59997;53.300;-6.260;2023-05-07T08:36:24;18.73;69.11
71942;DHT22;59997;53.300;-6.260;2023-05-07T08:38:51;19.47;67.53
71942;DHT22;59997;53.300;-6.260;2023-05-07T08:41:16;20.02;67.22
71942;DHT22;59997;53.300;-6.260;2023-05-07T08:43:47;20.29;65.00
71942;DHT22;59997;53.300;-6.260;2023-05-07T08:46:17;20.88;64.72
71942;DHT22;59997;53.300;-6.260;2023-05-07T08:48:44;21.12;61.90
71942;DHT22;59997;53.300;-6.260;2023-05-07T08:51:12;21.57;64.49
71942;DHT22;59997;53.300;-6.260;2023-05-07T08:53:40;21.54;60.15
71942;DHT22;59997;53.300;-6.260;2023-05-07T08:56:08;21.91;63.68
71942;DHT22;59997;53.300;-6.260;2023-05-07T08:58:34;21.62;62.82
71942;DHT22;59997;53.300;-6.260;2023-05-07T09:01:03;22.02;60.05
71942;DHT22;59997;53.300;-6.260;2023-05-07T09:03:30;22.21;61.41
71942;DHT22;59997;53.300;-6.260;2023-05-07T09:05:55;22.64;59.25
71942;DHT22;59997;53.300;-6.260;2023-05-07T09:08:24;22.91;60.91
71942;DHT22;59997;53.300;-6.260;2023-05-07T09:10:52;22.76;58.42
71942;DHT22;59997;53.300;-6.260;2023-05-07T09:13:17;22.68;58.86
71942;DHT22;59997;53.300;-6.260;2023-05-07T09:15:43;22.40;58.78
71942;DHT22;59997;53.300;-6.260;2023-05-07T09:18:09;22.27;61.86
71942;DHT22;59997;53.300;-6.260;2023-05-07T09:20:36;21.75;61.04
71942;DHT22;59997;53.300;-6.260;2023-05-07T09:23:02;22.14;60.71
71942;DHT22;59997;53.300;-6.260;2023-05-07T09:25:32;22.71;56.00
71942;DHT22;59997;53.300;-6.260;2023-05-07T09:27:59;21.30;59.32
71942;DHT22;59997;53.300;-6.260;2023-05-07T09:30:32;20.41;62.13
71942;DHT22;59997;53.300;-6.260;2023-05-07T09:32:59;19.94;63.28
71942;DHT22;59997;53.300;-6.260;2023-05-07T09:35:25;20.11;64.77
71942;DHT22;59997;53.300;-6.260;2023-05-07T09:37:57;21.58;62.01
71942;DHT22;59997;53.300;-6.260;2023-05-07T09:40:24;22.86;56.17
71942;DHT22;59997;53.300;-6.260;2023-05-07T09:42:50;23.54;55.62
71942;DHT22;59997;53.300;-6.260;2023-05-07T09:45:21;23.30;57.64
71942;DHT22;59997;53.300;-6.260;2023-05-07T09:47:48;22.41;55.29
71942;DHT22;59997;53.300;-6.260;2023-05-07T09:50:16;22.67;55.74
71942;DHT22;59997;53.300;-6.260;2023-05-07T09:52:43;22.50;56.49
71942;DHT22;59997;53.300;-6.260;2023-05-07T09:55:10;22.48;56.66
71942;DHT22;59997;53.300;-6.260;2023-05-07T09:57:38;23.13;55.69
71942;DHT22;59997;53.300;-6.260;2023-05-07T10:00:05;23.52;53.79
71942;DHT22;59997;53.300;-6.260;2023-05-07T10:02:35;23.27;56.80
71942;DHT22;59997;53.300;-6.260;2023-05-07T10:05:01;23.23;53.02
71942;DHT22;59997;53.300;-6.260;2023-05-07T10:07:27;23.14;53.25
71942;DHT22;59997;53.300;-6.260;2023-05-07T10:09:53;21.34;56.03
71942;DHT22;59997;53.300;-6.260;2023-05-07T10:12:20;20.60;58.89
71942;DHT22;59997;53.300;-6.260;2023-05-07T10:14:46;20.15;59.65
71942;DHT22;59997;53.300;-6.260;2023-05-07T10:17:13;20.09;60.89
71942;DHT22;59997;53.300;-6.260;2023-05-07T10:19:40;21.43;56.02
71942;DHT22;59997;53.300;-6.260;2023-05-07T10:22:07;21.88;59.63
71942;DHT22;59997;53.300;-6.260;2023-05-07T10:24:34;22.36;57.04
71942;DHT22;59997;53.300;-6.260;2023-05-07T10:27:01;22.47;52.83
71942;DHT22;59997;53.300;-6.260;2023-05-07T10:29:52;22.54;57.87
71942;DHT22;59997;53.300;-6.260;2023-05-07T10:34:53;23.20;55.22
71942;DHT22;59997;53.300;-6.260;2023-05-07T10:37:20;22.93;55.42
71942;DHT22;59997;53.300;-6.260;2023-05-07T10:39:46;22.55;52.32
71942;DHT22;59997;53.300;-6.260;2023-05-07T10:42:13;22.81;57.38
71942;DHT22;59997;53.300;-6.260;2023-05-07T10:44:39;23.02;55.12
71942;DHT22;59997;53.300;-6.260;2023-05-07T10:47:12;22.52;54.83
71942;DHT22;59997;53.300;-6.260;2023-05-07T10:52:13;20.13;60.82
71942;DHT22;59997;53.300;-6.260;2023-05-07T10:54:40;19.36;64.09
71942;DHT22;59997;53.300;-6.260;2023-05-07T10:59:56;19.16;64.92
71942;DHT22;59997;53.300;-6.260;2023-05-07T11:02:21;18.74;63.89
71942;DHT22;59997;53.300;-6.260;2023-05-07T11:05:19;18.84;65.48
71942;DHT22;59997;53.300;-6.260;2023-05-07T11:08:00;18.61;66.58
71942;DHT22;59997;53.300;-6.260;2023-05-07T11:10:51;18.98;65.92
71942;DHT22;59997;53.300;-6.260;2023-05-07T11:13:18;20.60;62.98
71942;DHT22;59997;53.300;-6.260;2023-05-07T11:15:48;20.74;61.49
71942;DHT22;59997;53.300;-6.260;2023-05-07T11:18:17;19.89;62.41
71942;DHT22;59997;53.300;-6.260;2023-05-07T11:20:56;20.61;62.28
71942;DHT22;59997;53.300;-6.260;2023-05-07T11:26:03;19.67;66.46
71942;DHT22;59997;53.300;-6.260;2023-05-07T11:28:30;19.35;66.75
71942;DHT22;59997;53.300;-6.260;2023-05-07T11:30:57;18.97;66.35
71942;DHT22;59997;53.300;-6.260;2023-05-07T11:33:23;18.74;66.20
71942;DHT22;59997;53.300;-6.260;2023-05-07T11:35:51;18.61;67.55
71942;DHT22;59997;53.300;-6.260;2023-05-07T11:38:18;18.57;67.48
71942;DHT22;59997;53.300;-6.260;2023-05-07T11:40:55;19.05;69.38
71942;DHT22;59997;53.300;-6.260;2023-05-07T11:43:21;19.11;67.01
71942;DHT22;59997;53.300;-6.260;2023-05-07T11:45:47;19.23;67.49
71942;DHT22;59997;53.300;-6.260;2023-05-07T11:48:13;20.04;62.33
71942;DHT22;59997;53.300;-6.260;2023-05-07T11:51:00;20.11;63.55
71942;DHT22;59997;53.300;-6.260;2023-05-07T11:53:27;19.71;62.32
71942;DHT22;59997;53.300;-6.260;2023-05-07T11:55:56;19.64;64.52
71942;DHT22;59997;53.300;-6.260;2023-05-07T11:58:24;19.66;63.49
71942;DHT22;59997;53.300;-6.260;2023-05-07T12:00:50;19.71;66.49
71942;DHT22;59997;53.300;-6.260;2023-05-07T12:03:16;20.02;64.76
71942;DHT22;59997;53.300;-6.260;2023-05-07T12:05:41;20.87;65.86
71942;DHT22;59997;53.300;-6.260;2023-05-07T12:08:07;21.18;62.98
71942;DHT22;59997;53.300;-6.260;2023-05-07T12:10:33;22.34;61.56
71942;DHT22;59997;53.300;-6.260;2023-05-07T12:12:58;23.13;54.37
71942;DHT22;59997;53.300;-6.260;2023-05-07T12:15:24;22.75;58.60
71942;DHT22;59997;53.300;-6.260;2023-05-07T12:17:49;23.06;58.39
71942;DHT22;59997;53.300;-6.260;2023-05-07T12:20:15;22.23;57.44
71942;DHT22;59997;53.300;-6.260;2023-05-07T12:22:42;21.58;58.47
71942;DHT22;59997;53.300;-6.260;2023-05-07T12:25:08;21.31;59.26
71942;DHT22;59997;53.300;-6.260;2023-05-07T12:27:37;21.50;57.63
71942;DHT22;59997;53.300;-6.260;2023-05-07T12:30:03;21.30;56.52
71942;DHT22;59997;53.300;-6.260;2023-05-07T12:32:29;20.98;60.67
71942;DHT22;59997;53.300;-6.260;2023-05-07T12:34:54;20.99;59.13
71942;DHT22;59997;53.300;-6.260;2023-05-07T12:37:25;21.09;60.35
71942;DHT22;59997;53.300;-6.260;2023-05-07T12:40:08;21.64;56.06
71942;DHT22;59997;53.300;-6.260;2023-05-07T12:42:38;22.06;57.19
71942;DHT22;59997;53.300;-6.260;2023-05-07T12:45:14;22.03;55.72
71942;DHT22;59997;53.300;-6.260;2023-05-07T12:47:46;21.51;55.73
71942;DHT22;59997;53.300;-6.260;2023-05-07T12:50:16;21.31;57.13
71942;DHT22;59997;53.300;-6.260;2023-05-07T12:52:43;22.34;54.67
71942;DHT22;59997;53.300;-6.260;2023-05-07T12:55:14;23.16;50.75
71942;DHT22;59997;53.300;-6.260;2023-05-07T12:57:45;23.65;51.81
71942;DHT22;59997;53.300;-6.260;2023-05-07T13:00:13;23.47;52.96
71942;DHT22;59997;53.300;-6.260;2023-05-07T13:02:40;24.07;56.45
71942;DHT22;59997;53.300;-6.260;2023-05-07T13:05:06;23.72;52.43
71942;DHT22;59997;53.300;-6.260;2023-05-07T13:07:32;22.85;53.10
71942;DHT22;59997;53.300;-6.260;2023-05-07T13:09:57;22.34;55.63
71942;DHT22;59997;53.300;-6.260;2023-05-07T13:12:23;21.89;54.80
71942;DHT22;59997;53.300;-6.260;2023-05-07T13:14:48;21.31;56.91
71942;DHT22;59997;53.300;-6.260;2023-05-07T13:17:14;21.27;57.54
71942;DHT22;59997;53.300;-6.260;2023-05-07T13:19:39;21.88;58.57
71942;DHT22;59997;53.300;-6.260;2023-05-07T13:22:05;22.07;57.23
71942;DHT22;59997;53.300;-6.260;2023-05-07T13:24:30;21.39;57.13
71942;DHT22;59997;53.300;-6.260;2023-05-07T13:26:56;21.20;56.61
71942;DHT22;59997;53.300;-6.260;2023-05-07T13:29:21;21.02;57.74
71942;DHT22;59997;53.300;-6.260;2023-05-07T13:31:54;21.05;59.28
71942;DHT22;59997;53.300;-6.260;2023-05-07T13:34:20;21.02;54.91
71942;DHT22;59997;53.300;-6.260;2023-05-07T13:36:45;20.95;55.32
71942;DHT22;59997;53.300;-6.260;2023-05-07T13:39:11;20.87;58.05
71942;DHT22;59997;53.300;-6.260;2023-05-07T13:41:36;20.81;57.86
71942;DHT22;59997;53.300;-6.260;2023-05-07T13:44:01;20.91;57.22
71942;DHT22;59997;53.300;-6.260;2023-05-07T13:46:27;21.43;54.07
71942;DHT22;59997;53.300;-6.260;2023-05-07T13:48:52;21.68;57.08
71942;DHT22;59997;53.300;-6.260;2023-05-07T13:51:18;21.95;56.75
71942;DHT22;59997;53.300;-6.260;2023-05-07T13:53:43;22.09;51.95
71942;DHT22;59997;53.300;-6.260;2023-05-07T13:56:09;22.64;55.57
71942;DHT22;59997;53.300;-6.260;2023-05-07T13:58:35;23.19;52.00
71942;DHT22;59997;53.300;-6.260;2023-05-07T14:01:01;22.61;50.26
71942;DHT22;59997;53.300;-6.260;2023-05-07T14:03:27;22.26;51.43
71942;DHT22;59997;53.300;-6.260;2023-05-07T14:05:52;21.82;52.38
71942;DHT22;59997;53.300;-6.260;2023-05-07T14:08:18;22.14;53.18
71942;DHT22;59997;53.300;-6.260;2023-05-07T14:10:45;21.89;52.77
71942;DHT22;59997;53.300;-6.260;2023-05-07T14:13:11;22.26;54.34
71942;DHT22;59997;53.300;-6.260;2023-05-07T14:15:37;22.47;51.37
71942;DHT22;59997;53.300;-6.260;2023-05-07T14:18:03;22.54;51.69
71942;DHT22;59997;53.300;-6.260;2023-05-07T14:20:28;22.73;51.68
71942;DHT22;59997;53.300;-6.260;2023-05-07T14:22:55;22.29;52.07
71942;DHT22;59997;53.300;-6.260;2023-05-07T14:25:21;22.43;54.45
71942;DHT22;59997;53.300;-6.260;2023-05-07T14:27:46;22.41;51.67
71942;DHT22;59997;53.300;-6.260;2023-05-07T14:30:12;22.27;51.85
71942;DHT22;59997;53.300;-6.260;2023-05-07T14:32:38;22.36;53.51
71942;DHT22;59997;53.300;-6.260;2023-05-07T14:35:03;22.55;52.64
71942;DHT22;59997;53.300;-6.260;2023-05-07T14:37:29;22.82;52.28
71942;DHT22;59997;53.300;-6.260;2023-05-07T14:39:55;22.91;51.62
71942;DHT22;59997;53.300;-6.260;2023-05-07T14:42:20;22.98;53.69
71942;DHT22;59997;53.300;-6.260;2023-05-07T14:44:47;22.55;51.42
71942;DHT22;59997;53.300;-6.260;2023-05-07T14:47:13;22.51;54.73
71942;DHT22;59997;53.300;-6.260;2023-05-07T14:49:40;22.65;52.05
71942;DHT22;59997;53.300;-6.260;2023-05-07T14:52:08;23.00;49.71
71942;DHT22;59997;53.300;-6.260;2023-05-07T14:54:36;22.75;51.09
71942;DHT22;59997;53.300;-6.260;2023-05-07T14:57:02;22.99;55.29
71942;DHT22;59997;53.300;-6.260;2023-05-07T14:59:28;22.84;51.94
71942;DHT22;59997;53.300;-6.260;2023-05-07T15:01:54;22.72;53.07
71942;DHT22;59997;53.300;-6.260;2023-05-07T15:04:19;22.58;50.66
71942;DHT22;59997;53.300;-6.260;2023-05-07T15:06:45;22.48;52.97
71942;DHT22;59997;53.300;-6.260;2023-05-07T15:09:11;23.04;53.95
71942;DHT22;59997;53.300;-6.260;2023-05-07T15:11:37;22.52;50.40
71942;DHT22;59997;53.300;-6.260;2023-05-07T15:14:03;22.29;53.81
71942;DHT22;59997;53.300;-6.260;2023-05-07T15:16:28;21.79;52.24
71942;DHT22;59997;53.300;-6.260;2023-05-07T15:18:54;21.18;52.49
71942;DHT22;59997;53.300;-6.260;2023-05-07T15:21:19;20.63;54.64